createdAt,value
2022-10-01T00:00:50.982Z,8.13
2022-10-01T00:03:18.154Z,8.90
2022-10-01T00:05:45.248Z,8.53
2022-10-01T00:08:14.257Z,7.30
2022-10-01T00:10:42.009Z,7.37
2022-10-01T00:13:08.941Z,8.57
2022-10-01T00:15:35.983Z,7.97
2022-10-01T00:18:02.738Z,8.20
2022-10-01T00:20:29.539Z,9.07
2022-10-01T00:22:56.294Z,9.83
2022-10-01T00:25:25.391Z,7.43
2022-10-01T00:27:52.286Z,9.23
2022-10-01T00:30:19.103Z,7.23
2022-10-01T00:32:45.842Z,7.17
2022-10-01T00:35:14.464Z,6.83
2022-10-01T00:37:42.613Z,7.47
2022-10-01T00:40:09.657Z,6.80
2022-10-01T00:42:36.436Z,7.07
2022-10-01T00:45:03.440Z,7.33
2022-10-01T00:47:42.181Z,7.77
2022-10-01T00:50:38.451Z,7.80
2022-10-01T00:53:13.502Z,8.37
2022-10-01T00:55:42.062Z,8.33
2022-10-01T00:58:10.328Z,5.20
2022-10-01T01:00:37.280Z,8.40
2022-10-01T01:03:05.088Z,5.93
2022-10-01T01:05:32.288Z,7.33
2022-10-01T01:08:01.649Z,6.47
2022-10-01T01:10:48.497Z,5.57
2022-10-01T01:13:22.994Z,6.60
2022-10-01T01:16:06.035Z,6.50
2022-10-01T01:18:41.315Z,6.10
2022-10-01T01:21:26.208Z,5.50
2022-10-01T01:24:14.374Z,5.60
2022-10-01T01:26:50.330Z,6.50
2022-10-01T01:29:22.132Z,8.17
2022-10-01T01:31:48.961Z,5.10
2022-10-01T01:34:23.645Z,4.50
2022-10-01T01:37:01.029Z,4.33
2022-10-01T01:39:29.834Z,4.20
2022-10-01T01:41:59.459Z,5.90
2022-10-01T01:44:28.122Z,3.30
2022-10-01T01:46:56.522Z,3.70
2022-10-01T01:49:23.373Z,3.97
2022-10-01T01:52:15.221Z,4.50
2022-10-01T01:54:42.661Z,4.73
2022-10-01T01:57:09.418Z,3.70
2022-10-01T01:59:36.544Z,5.80
2022-10-01T02:02:06.970Z,3.50
2022-10-01T02:04:46.230Z,4.47
2022-10-01T02:07:33.875Z,3.90
2022-10-01T02:10:19.230Z,3.60
2022-10-01T02:12:58.018Z,5.10
2022-10-01T02:16:02.146Z,3.37
2022-10-01T02:18:37.805Z,3.30
2022-10-01T02:21:11.731Z,4.03
2022-10-01T02:23:44.918Z,3.70
2022-10-01T02:26:15.381Z,4.43
2022-10-01T02:28:42.257Z,5.77
2022-10-01T02:31:10.167Z,5.27
2022-10-01T02:33:36.949Z,4.93
2022-10-01T02:36:05.445Z,3.93
2022-10-01T02:38:32.282Z,5.90
2022-10-01T02:41:01.034Z,4.33
2022-10-01T02:43:32.288Z,3.60
2022-10-01T02:46:02.660Z,4.35
2022-10-01T02:48:29.483Z,4.67
2022-10-01T02:51:15.880Z,5.00
2022-10-01T02:53:44.345Z,5.73
2022-10-01T02:56:11.111Z,4.83
2022-10-01T02:58:38.070Z,3.83
2022-10-01T03:01:06.197Z,5.67
2022-10-01T03:03:32.994Z,5.53
2022-10-01T03:05:59.791Z,3.70
2022-10-01T03:08:26.546Z,5.65
2022-10-01T03:10:54.334Z,4.53
2022-10-01T03:13:23.470Z,6.87
2022-10-01T03:15:50.389Z,7.73
2022-10-01T03:18:17.274Z,7.33
2022-10-01T03:20:44.057Z,5.97
2022-10-01T03:23:10.816Z,6.03
2022-10-01T03:25:37.607Z,9.27
2022-10-01T03:28:04.433Z,8.07
2022-10-01T03:30:31.317Z,10.50
2022-10-01T03:32:58.114Z,8.88
2022-10-01T03:35:24.982Z,11.55
2022-10-01T03:37:51.806Z,8.33
2022-10-01T03:40:20.009Z,12.00
2022-10-01T03:42:46.763Z,8.10
2022-10-01T03:45:13.599Z,8.13
2022-10-01T03:47:40.405Z,8.05
2022-10-01T03:50:07.603Z,11.90
2022-10-01T03:52:34.459Z,6.70
2022-10-01T03:55:01.227Z,8.82
2022-10-01T03:57:27.989Z,8.82
2022-10-01T03:59:54.783Z,8.63
2022-10-01T04:02:22.052Z,10.40
2022-10-01T04:04:48.920Z,11.90
2022-10-01T04:07:15.729Z,15.82
2022-10-01T04:09:42.545Z,16.10
2022-10-01T04:12:09.599Z,16.10
2022-10-01T04:14:36.441Z,14.23
2022-10-01T04:17:03.191Z,24.88
2022-10-01T04:19:30.099Z,27.20
2022-10-01T04:21:56.889Z,14.35
2022-10-01T04:24:23.645Z,24.10
2022-10-01T04:26:53.621Z,21.45
2022-10-01T04:29:20.408Z,19.10
2022-10-01T04:31:47.256Z,21.08
2022-10-01T04:34:14.054Z,16.85
2022-10-01T04:36:40.827Z,17.42
2022-10-01T04:39:08.303Z,19.65
2022-10-01T04:41:35.222Z,14.75
2022-10-01T04:44:02.433Z,19.02
2022-10-01T04:46:30.426Z,23.27
2022-10-01T04:48:57.535Z,16.15
2022-10-01T04:51:24.636Z,16.02
2022-10-01T04:53:51.453Z,22.35
2022-10-01T04:56:19.297Z,20.70
2022-10-01T04:58:46.062Z,17.67
2022-10-01T05:01:12.910Z,22.40
2022-10-01T05:03:39.969Z,20.95
2022-10-01T05:06:06.799Z,23.20
2022-10-01T05:08:33.558Z,23.10
2022-10-01T05:11:00.672Z,15.73
2022-10-01T05:13:31.899Z,17.02
2022-10-01T05:15:59.020Z,22.63
2022-10-01T05:18:25.854Z,22.33
2022-10-01T05:20:52.686Z,22.17
2022-10-01T05:23:19.458Z,19.98
2022-10-01T05:25:47.046Z,20.90
2022-10-01T05:28:17.152Z,18.17
2022-10-01T05:30:48.083Z,25.10
2022-10-01T05:33:14.879Z,22.17
2022-10-01T05:35:41.665Z,16.95
2022-10-01T05:38:08.463Z,20.30
2022-10-01T05:40:35.262Z,19.42
2022-10-01T05:43:04.493Z,22.73
2022-10-01T05:45:31.629Z,23.70
2022-10-01T05:48:02.303Z,21.88
2022-10-01T05:50:31.518Z,25.25
2022-10-01T05:52:59.395Z,21.85
2022-10-01T05:55:26.306Z,16.58
2022-10-01T05:58:00.265Z,19.60
2022-10-01T06:00:30.011Z,16.60
2022-10-01T06:02:57.988Z,22.67
2022-10-01T06:05:25.185Z,20.23
2022-10-01T06:07:52.933Z,17.33
2022-10-01T06:10:19.913Z,22.25
2022-10-01T06:12:46.887Z,18.83
2022-10-01T06:15:13.761Z,19.17
2022-10-01T06:17:44.945Z,26.85
2022-10-01T06:20:13.122Z,22.02
2022-10-01T06:22:41.068Z,16.30
2022-10-01T06:25:08.255Z,22.33
2022-10-01T06:27:35.008Z,17.35
2022-10-01T06:30:01.846Z,29.15
2022-10-01T06:32:31.660Z,25.15
2022-10-01T06:35:01.520Z,22.40
2022-10-01T06:37:28.652Z,21.27
2022-10-01T06:39:55.545Z,25.00
2022-10-01T06:42:22.372Z,19.92
2022-10-01T06:44:49.121Z,18.25
2022-10-01T06:47:15.947Z,18.63
2022-10-01T06:49:47.504Z,17.20
2022-10-01T06:52:33.557Z,20.85
2022-10-01T06:55:01.552Z,17.10
2022-10-01T06:57:28.618Z,19.60
2022-10-01T06:59:55.601Z,23.52
2022-10-01T07:02:28.199Z,22.83
2022-10-01T07:04:58.921Z,24.17
2022-10-01T07:07:32.782Z,17.90
2022-10-01T07:09:59.556Z,20.85
2022-10-01T07:12:26.595Z,23.85
2022-10-01T07:14:54.086Z,25.48
2022-10-01T07:17:21.482Z,22.35
2022-10-01T07:19:48.381Z,24.08
2022-10-01T07:22:15.159Z,22.50
2022-10-01T07:24:41.961Z,21.27
2022-10-01T07:27:08.764Z,20.75
2022-10-01T07:29:35.856Z,16.83
2022-10-01T07:32:08.475Z,20.85
2022-10-01T07:34:42.588Z,28.65
2022-10-01T07:37:09.549Z,26.17
2022-10-01T07:39:36.716Z,23.77
2022-10-01T07:42:03.997Z,22.23
2022-10-01T07:44:30.778Z,20.33
2022-10-01T07:46:57.647Z,22.35
2022-10-01T07:49:27.253Z,28.77
2022-10-01T07:51:54.766Z,20.08
2022-10-01T07:54:22.264Z,23.05
2022-10-01T07:56:51.940Z,17.17
2022-10-01T07:59:19.099Z,22.67
2022-10-01T08:01:49.711Z,23.90
2022-10-01T08:04:35.107Z,17.77
2022-10-01T08:07:01.937Z,28.63
2022-10-01T08:09:28.761Z,24.88
2022-10-01T08:11:55.546Z,34.45
2022-10-01T08:14:23.057Z,34.00
2022-10-01T08:16:49.960Z,28.10
2022-10-01T08:19:16.817Z,23.55
2022-10-01T08:21:43.686Z,28.70
2022-10-01T08:24:10.471Z,20.85
2022-10-01T08:26:37.299Z,26.30
2022-10-01T08:29:04.130Z,23.17
2022-10-01T08:31:31.062Z,23.08
2022-10-01T08:33:57.979Z,22.60
2022-10-01T08:36:24.807Z,21.00
2022-10-01T08:38:51.988Z,19.58
2022-10-01T08:41:30.799Z,24.23
2022-10-01T08:43:59.335Z,23.48
2022-10-01T08:46:28.156Z,32.78
2022-10-01T08:49:16.375Z,25.23
2022-10-01T08:51:55.562Z,26.40
2022-10-01T08:54:34.360Z,22.75
2022-10-01T08:57:02.819Z,28.80
2022-10-01T08:59:35.265Z,26.80
2022-10-01T09:02:02.255Z,23.63
2022-10-01T09:04:29.421Z,26.08
2022-10-01T09:07:10.336Z,16.33
2022-10-01T09:09:37.689Z,20.50
2022-10-01T09:12:44.418Z,20.88
2022-10-01T09:15:30.254Z,20.27
2022-10-01T09:18:41.897Z,23.02
2022-10-01T09:21:18.047Z,18.00
2022-10-01T09:23:51.762Z,17.20
2022-10-01T09:26:21.359Z,25.48
2022-10-01T09:28:51.875Z,17.52
2022-10-01T09:31:26.084Z,27.48
2022-10-01T09:34:06.657Z,20.67
2022-10-01T09:37:07.690Z,21.45
2022-10-01T09:39:58.874Z,18.08
2022-10-01T09:42:26.910Z,22.52
2022-10-01T09:44:54.641Z,22.77
2022-10-01T09:47:22.410Z,23.15
2022-10-01T09:49:49.304Z,19.10
2022-10-01T09:52:30.435Z,18.55
2022-10-01T09:55:17.073Z,19.00
2022-10-01T09:57:52.684Z,24.42
2022-10-01T10:00:20.995Z,18.92
2022-10-01T10:02:49.972Z,20.80
2022-10-01T10:05:21.258Z,23.95
2022-10-01T10:07:50.753Z,20.45
2022-10-01T10:10:31.158Z,31.13
2022-10-01T10:13:01.844Z,24.88
2022-10-01T10:15:31.931Z,17.00
2022-10-01T10:18:21.519Z,18.95
2022-10-01T10:20:52.349Z,23.00
2022-10-01T10:23:20.651Z,25.83
2022-10-01T10:26:03.071Z,25.13
2022-10-01T10:28:43.877Z,28.13
2022-10-01T10:31:16.429Z,26.27
2022-10-01T10:34:08.321Z,23.83
2022-10-01T10:36:36.435Z,19.95
2022-10-01T10:39:07.275Z,22.73
2022-10-01T10:41:34.330Z,19.90
2022-10-01T10:44:04.415Z,28.42
2022-10-01T10:46:34.897Z,22.95
2022-10-01T10:49:18.529Z,25.75
2022-10-01T10:51:48.723Z,17.70
2022-10-01T10:54:31.490Z,20.83
2022-10-01T10:57:04.024Z,34.15
2022-10-01T10:59:32.190Z,32.10
2022-10-01T11:02:05.728Z,21.52
2022-10-01T11:04:43.314Z,31.70
2022-10-01T11:07:10.814Z,28.83
2022-10-01T11:10:11.773Z,25.77
2022-10-01T11:13:25.302Z,19.17
2022-10-01T11:16:33.409Z,20.48
2022-10-01T11:19:18.282Z,21.08
2022-10-01T11:22:10.688Z,22.35
2022-10-01T11:25:01.190Z,22.60
2022-10-01T11:27:36.550Z,18.65
2022-10-01T11:30:19.517Z,27.83
2022-10-01T11:33:45.144Z,21.40
2022-10-01T11:36:21.381Z,23.67
2022-10-01T11:39:00.453Z,26.73
2022-10-01T11:41:38.726Z,26.67
2022-10-01T11:44:18.554Z,30.42
2022-10-01T11:47:23.283Z,37.05
2022-10-01T11:49:57.374Z,30.05
2022-10-01T11:52:46.602Z,25.77
2022-10-01T11:55:39.366Z,30.08
2022-10-01T11:58:36.126Z,26.67
2022-10-01T12:01:15.032Z,38.78
2022-10-01T12:03:56.705Z,32.05
2022-10-01T12:06:28.419Z,26.45
2022-10-01T12:09:04.531Z,24.30
2022-10-01T12:11:54.637Z,26.75
2022-10-01T12:14:25.631Z,34.85
2022-10-01T12:16:58.779Z,25.85
2022-10-01T12:19:28.799Z,25.20
2022-10-01T12:21:57.582Z,15.00
2022-10-01T12:24:35.757Z,26.08
2022-10-01T12:27:25.535Z,22.42
2022-10-01T12:30:14.187Z,22.10
2022-10-01T12:33:02.173Z,19.88
2022-10-01T12:36:06.534Z,25.52
2022-10-01T12:39:07.607Z,22.67
2022-10-01T12:41:50.849Z,29.48
2022-10-01T12:44:56.825Z,18.45
2022-10-01T12:47:36.444Z,23.38
2022-10-01T12:50:25.471Z,14.85
2022-10-01T12:52:52.302Z,27.98
2022-10-01T12:55:34.447Z,18.80
2022-10-01T12:58:16.750Z,16.88
2022-10-01T13:01:14.904Z,26.00
2022-10-01T13:04:03.417Z,21.25
2022-10-01T13:07:02.591Z,19.40
2022-10-01T13:09:55.722Z,19.52
2022-10-01T13:12:47.391Z,15.55
2022-10-01T13:15:17.122Z,21.17
2022-10-01T13:17:50.062Z,21.65
2022-10-01T13:20:33.780Z,26.35
2022-10-01T13:23:15.558Z,22.17
2022-10-01T13:25:44.670Z,19.13
2022-10-01T13:28:11.460Z,19.58
2022-10-01T13:30:55.205Z,17.95
2022-10-01T13:33:29.895Z,18.48
2022-10-01T13:35:58.610Z,23.50
2022-10-01T13:38:39.619Z,21.15
2022-10-01T13:41:30.642Z,17.80
2022-10-01T13:44:11.630Z,20.98
2022-10-01T13:47:03.184Z,21.95
2022-10-01T13:49:30.569Z,23.30
2022-10-01T13:51:57.541Z,25.55
2022-10-01T13:54:47.546Z,23.55
2022-10-01T13:57:34.226Z,20.27
2022-10-01T14:00:13.021Z,18.95
2022-10-01T14:02:45.198Z,28.02
2022-10-01T14:05:18.383Z,19.20
2022-10-01T14:07:45.578Z,19.60
2022-10-01T14:10:14.249Z,20.98
2022-10-01T14:13:00.898Z,20.35
2022-10-01T14:15:50.969Z,17.65
2022-10-01T14:18:22.495Z,18.88
2022-10-01T14:21:02.094Z,20.00
2022-10-01T14:23:52.646Z,18.90
2022-10-01T14:26:42.874Z,23.08
2022-10-01T14:29:28.178Z,17.27
2022-10-01T14:32:25.601Z,18.90
2022-10-01T14:35:26.535Z,21.42
2022-10-01T14:38:04.500Z,13.02
2022-10-01T14:40:42.031Z,14.93
2022-10-01T14:43:19.343Z,15.43
2022-10-01T14:45:56.741Z,16.15
2022-10-01T14:48:24.423Z,13.18
2022-10-01T14:50:53.295Z,24.90
2022-10-01T14:53:21.940Z,17.05
2022-10-01T14:55:48.774Z,17.67
2022-10-01T14:58:34.008Z,20.05
2022-10-01T15:01:00.790Z,19.35
2022-10-01T15:03:27.585Z,19.58
2022-10-01T15:06:05.319Z,20.35
2022-10-01T15:08:45.429Z,13.15
2022-10-01T15:11:14.698Z,13.88
2022-10-01T15:13:43.030Z,19.77
2022-10-01T15:16:16.930Z,13.02
2022-10-01T15:18:53.512Z,10.55
2022-10-01T15:21:23.282Z,12.30
2022-10-01T15:23:50.135Z,12.98
2022-10-01T15:26:22.733Z,14.73
2022-10-01T15:28:50.606Z,21.55
2022-10-01T15:31:17.925Z,13.00
2022-10-01T15:33:44.799Z,15.10
2022-10-01T15:36:18.473Z,13.95
2022-10-01T15:38:46.030Z,14.23
2022-10-01T15:41:32.508Z,15.93
2022-10-01T15:44:04.762Z,21.63
2022-10-01T15:46:34.190Z,23.00
2022-10-01T15:49:11.443Z,16.85
2022-10-01T15:51:38.216Z,11.90
2022-10-01T15:54:06.881Z,13.95
2022-10-01T15:56:33.848Z,15.70
2022-10-01T15:59:15.308Z,16.08
2022-10-01T16:01:42.172Z,15.40
2022-10-01T16:04:18.028Z,16.10
2022-10-01T16:06:46.882Z,10.70
2022-10-01T16:09:21.058Z,10.75
2022-10-01T16:11:56.588Z,14.23
2022-10-01T16:14:47.414Z,17.52
2022-10-01T16:17:17.171Z,24.58
2022-10-01T16:19:48.052Z,23.80
2022-10-01T16:22:18.750Z,25.52
2022-10-01T16:24:50.101Z,27.98
2022-10-01T16:27:18.706Z,20.88
2022-10-01T16:30:04.756Z,29.55
2022-10-01T16:32:32.357Z,20.42
2022-10-01T16:35:28.940Z,22.77
2022-10-01T16:37:56.921Z,23.92
2022-10-01T16:40:31.086Z,21.98
2022-10-01T16:42:58.554Z,21.35
2022-10-01T16:45:34.267Z,22.27
2022-10-01T16:48:01.334Z,24.13
2022-10-01T16:50:28.153Z,25.70
2022-10-01T16:52:55.626Z,22.17
2022-10-01T16:55:24.189Z,27.42
2022-10-01T16:57:51.515Z,21.48
2022-10-01T17:00:19.138Z,36.45
2022-10-01T17:02:45.981Z,27.15
2022-10-01T17:05:25.259Z,32.40
2022-10-01T17:07:52.919Z,28.48
2022-10-01T17:10:20.650Z,23.48
2022-10-01T17:12:47.841Z,28.38
2022-10-01T17:15:26.384Z,29.80
2022-10-01T17:17:54.332Z,28.65
2022-10-01T17:20:22.171Z,31.35
2022-10-01T17:22:49.679Z,32.40
2022-10-01T17:25:25.037Z,22.45
2022-10-01T17:27:51.899Z,27.67
2022-10-01T17:30:18.710Z,30.38
2022-10-01T17:32:46.670Z,33.55
2022-10-01T17:35:14.374Z,28.55
2022-10-01T17:37:41.651Z,32.25
2022-10-01T17:40:09.266Z,26.02
2022-10-01T17:42:36.206Z,34.58
2022-10-01T17:45:04.220Z,32.80
2022-10-01T17:47:31.064Z,26.83
2022-10-01T17:49:57.869Z,29.85
2022-10-01T17:52:24.685Z,27.60
2022-10-01T17:54:51.519Z,26.52
2022-10-01T17:57:18.389Z,31.23
2022-10-01T17:59:45.182Z,33.53
2022-10-01T18:02:36.623Z,36.03
2022-10-01T18:04:59.674Z,37.17
2022-10-01T18:07:27.095Z,38.97
2022-10-01T18:09:54.004Z,38.75
2022-10-01T18:12:20.819Z,39.38
2022-10-01T18:14:49.707Z,37.05
2022-10-01T18:17:16.581Z,39.42
2022-10-01T18:19:53.270Z,35.88
2022-10-01T18:22:21.162Z,31.98
2022-10-01T18:24:47.925Z,32.47
2022-10-01T18:27:14.959Z,33.58
2022-10-01T18:29:41.911Z,46.92
2022-10-01T18:32:25.602Z,45.15
2022-10-01T18:34:59.714Z,41.30
2022-10-01T18:37:52.645Z,42.92
2022-10-01T18:40:24.113Z,43.67
2022-10-01T18:43:09.610Z,37.45
2022-10-01T18:46:03.925Z,40.38
2022-10-01T18:48:37.063Z,37.28
2022-10-01T18:51:09.746Z,40.92
2022-10-01T18:53:54.670Z,38.13
2022-10-01T18:56:34.227Z,38.13
2022-10-01T18:59:17.791Z,35.42
2022-10-01T19:02:09.217Z,42.67
2022-10-01T19:05:05.211Z,35.17
2022-10-01T19:07:47.120Z,38.15
2022-10-01T19:10:41.724Z,30.40
2022-10-01T19:13:13.880Z,31.80
2022-10-01T19:15:59.386Z,48.00
2022-10-01T19:18:48.485Z,38.00
2022-10-01T19:21:45.297Z,43.45
2022-10-01T19:24:34.095Z,35.55
2022-10-01T19:27:29.633Z,44.75
2022-10-01T19:30:10.978Z,44.20
2022-10-01T19:33:10.214Z,33.45
2022-10-01T19:35:41.834Z,40.20
2022-10-01T19:38:13.867Z,39.58
2022-10-01T19:40:41.356Z,41.20
2022-10-01T19:43:29.714Z,42.45
2022-10-01T19:46:36.536Z,43.00
2022-10-01T19:49:09.590Z,33.08
2022-10-01T19:51:40.129Z,41.50
2022-10-01T19:54:16.991Z,37.53
2022-10-01T19:56:45.902Z,36.13
2022-10-01T19:59:18.979Z,42.60
2022-10-01T20:02:04.010Z,46.55
2022-10-01T20:04:45.653Z,37.72
2022-10-01T20:07:29.260Z,40.80
2022-10-01T20:10:05.875Z,37.30
2022-10-01T20:13:01.518Z,40.85
2022-10-01T20:15:40.003Z,50.65
2022-10-01T20:18:44.579Z,39.53
2022-10-01T20:21:20.272Z,41.95
2022-10-01T20:24:13.320Z,39.78
2022-10-01T20:26:46.313Z,43.05
2022-10-01T20:29:14.182Z,42.15
2022-10-01T20:32:23.614Z,42.10
2022-10-01T20:35:20.887Z,37.17
2022-10-01T20:38:11.385Z,41.30
2022-10-01T20:40:49.579Z,43.10
2022-10-01T20:43:36.218Z,42.63
2022-10-01T20:46:14.572Z,44.88
2022-10-01T20:48:47.750Z,44.05
2022-10-01T20:51:24.579Z,34.10
2022-10-01T20:53:54.553Z,37.50
2022-10-01T20:56:28.336Z,41.10
2022-10-01T20:59:08.226Z,40.55
2022-10-01T21:01:38.837Z,41.00
2022-10-01T21:04:12.154Z,44.08
2022-10-01T21:06:45.841Z,55.35
2022-10-01T21:09:31.064Z,54.47
2022-10-01T21:12:07.314Z,55.92
2022-10-01T21:14:42.190Z,47.28
2022-10-01T21:17:30.500Z,48.05
2022-10-01T21:20:38.873Z,54.15
2022-10-01T21:23:30.786Z,56.38
2022-10-01T21:26:13.358Z,54.80
2022-10-01T21:28:47.205Z,51.15
2022-10-01T21:31:35.744Z,51.95
2022-10-01T21:34:38.694Z,49.35
2022-10-01T21:37:13.582Z,47.30
2022-10-01T21:40:15.138Z,47.17
2022-10-01T21:43:06.642Z,51.50
2022-10-01T21:45:49.810Z,48.33
2022-10-01T21:48:37.470Z,47.90
2022-10-01T21:51:17.413Z,48.35
2022-10-01T21:53:54.137Z,45.45
2022-10-01T21:56:58.507Z,52.20
2022-10-01T21:59:40.845Z,51.58
2022-10-01T22:02:34.723Z,50.65
2022-10-01T22:05:04.139Z,43.25
2022-10-01T22:07:59.767Z,42.95
2022-10-01T22:10:47.431Z,43.10
2022-10-01T22:13:26.124Z,44.63
2022-10-01T22:15:55.313Z,43.25
2022-10-01T22:18:31.113Z,37.50
2022-10-01T22:20:59.399Z,37.10
2022-10-01T22:23:26.153Z,29.27
2022-10-01T22:25:56.534Z,34.35
2022-10-01T22:28:31.282Z,26.92
2022-10-01T22:30:58.146Z,23.50
2022-10-01T22:33:28.047Z,27.77
2022-10-01T22:36:11.060Z,20.40
2022-10-01T22:38:43.878Z,29.88
2022-10-01T22:41:20.177Z,25.23
2022-10-01T22:43:47.011Z,25.55
2022-10-01T22:47:04.238Z,19.95
2022-10-01T22:49:55.269Z,20.30
2022-10-01T22:52:39.933Z,25.08
2022-10-01T22:55:38.991Z,23.00
2022-10-01T22:58:31.712Z,19.90
2022-10-01T23:01:22.639Z,20.15
2022-10-01T23:04:24.475Z,22.98
2022-10-01T23:07:03.259Z,21.45
2022-10-01T23:09:33.386Z,20.08
2022-10-01T23:12:32.800Z,24.45
2022-10-01T23:15:14.295Z,28.00
2022-10-01T23:18:04.067Z,26.15
2022-10-01T23:20:45.417Z,26.13
2022-10-01T23:23:29.766Z,27.73
2022-10-01T23:26:27.743Z,23.13
2022-10-01T23:29:17.406Z,23.00
2022-10-01T23:31:56.566Z,28.13
2022-10-01T23:34:34.094Z,32.90
2022-10-01T23:37:31.958Z,36.13
2022-10-01T23:40:07.734Z,42.10
2022-10-01T23:43:01.094Z,37.95
2022-10-01T23:45:33.342Z,44.35
2022-10-01T23:48:22.691Z,43.15
2022-10-01T23:51:06.766Z,50.28
2022-10-01T23:53:44.833Z,60.00
2022-10-01T23:56:39.243Z,60.05
2022-10-01T23:59:10.860Z,66.93
